Terminal Aerodrome Forecast
Issued by NWS

Home | Current Version | Previous Version | Text Only | Print | Product List | Glossary Off
Versions: 1 2 3 4 5 6 7 8 9 10 11 12 13 14

916
FTUS43 KUNR 250520
TAFGCC
TAF
KGCC 250520Z 2506/2606 35011KT P6SM OVC090
      TEMPO 2509/2512 -SHRA OVC050
     FM251500 02005KT P6SM OVC110
     FM252100 14006KT P6SM BKN120 OVC250=

USA.gov is the U.S. government's official web portal to all federal, state and local government web resources and services.